Time;durP1;ratioP1;P1;durP2;ratioP2;P2;SDS_P1;SDS_P2;PMS_P1;PMS_P2;Temp;Humidity;BMP_temperature;BMP_pressure;BME280_temperature;BME280_humidity;BME280_pressure;Samples;Min_cycle;Max_cycle;Signal;HPM_P1;HPM_P2
2023/03/14 00:01:32;;;;;;;;;;;;;;;;;;5043384;28;19948;-45
2023/03/14 00:03:59;;;;;;;;;;;;;;;;;;5041660;28;19916;-52
2023/03/14 00:06:25;;;;;;;;;;;;;;;;;;5049470;28;20010;-49
2023/03/14 00:08:51;;;;;;;;;;;;;;;;;;5044868;28;20023;-47
2023/03/14 00:11:17;;;;;;;;;;;;;;;;;;5047623;28;19912;-47
2023/03/14 00:13:43;;;;;;;;;;;;;;;;;;5040834;28;19909;-46
2023/03/14 00:16:09;;;;;;;;;;;;;;;;;;5050136;28;20240;-46
2023/03/14 00:18:35;;;;;;;;;;;;;;;;;;5042829;28;20365;-47
2023/03/14 00:21:01;;;;;;;;;;;;;;;;;;5050085;28;20409;-48
2023/03/14 00:23:26;;;;;;;;;;;;;;;;;;5050094;28;19905;-47
2023/03/14 00:25:52;;;;;;;;;;;;;;;;;;5051482;28;19913;-46
2023/03/14 00:28:18;;;;;;;;;;;;;;;;;;5055046;28;20424;-46
2023/03/14 00:30:44;;;;;;;;;;;;;;;;;;5053152;28;20293;-49
2023/03/14 00:33:10;;;;;;;;;;;;;;;;;;5054609;28;19908;-46
2023/03/14 00:35:36;;;;;;;;;;;;;;;;;;5042061;28;19904;-46
2023/03/14 00:38:02;;;;;;;;;;;;;;;;;;5045342;28;19920;-47
2023/03/14 00:40:28;;;;;;;;;;;;;;;;;;5051603;28;20049;-49
2023/03/14 00:42:53;;;;;;;;;;;;;;;;;;5049410;28;20347;-46
2023/03/14 00:45:19;;;;;;;;;;;;;;;;;;5046796;28;19909;-46
2023/03/14 00:47:45;;;;;;;;;;;;;;;;;;5047211;28;19956;-46
2023/03/14 00:50:11;;;;;;;;;;;;;;;;;;5053911;28;19952;-46
2023/03/14 00:52:37;;;;;;;;;;;;;;;;;;5049038;28;19912;-46
2023/03/14 00:55:03;;;;;;;;;;;;;;;;;;5052912;28;19909;-49
2023/03/14 00:57:29;;;;;;;;;;;;;;;;;;5051837;28;19950;-47
2023/03/14 00:59:55;;;;;;;;;;;;;;;;;;5053312;28;20427;-47
2023/03/14 01:02:20;;;;;;;;;;;;;;;;;;5044543;28;19909;-48
2023/03/14 01:04:46;;;;;;;;;;;;;;;;;;5043503;28;19962;-47
2023/03/14 01:07:12;;;;;;;;;;;;;;;;;;5044610;28;20267;-48
2023/03/14 01:09:38;;;;;;;;;;;;;;;;;;5026561;28;19912;-46
2023/03/14 01:12:04;;;;;;;;;;;;;;;;;;5038053;28;20000;-46
2023/03/14 01:14:30;;;;;;;;;;;;;;;;;;5046191;28;19913;-48
2023/03/14 01:17:00;;;;;;;;;;;;;;;;;;5046556;28;19944;-46
2023/03/14 01:19:26;;;;;;;;;;;;;;;;;;5045252;28;20379;-47
2023/03/14 01:21:52;;;;;;;;;;;;;;;;;;5048172;28;19936;-49
2023/03/14 01:24:18;;;;;;;;;;;;;;;;;;5049744;28;19916;-47
2023/03/14 01:26:43;;;;;;;;;;;;;;;;;;5039718;28;19909;-46
2023/03/14 01:29:09;;;;;;;;;;;;;;;;;;5051978;28;20352;-46
2023/03/14 01:31:35;;;;;;;;;;;;;;;;;;5042034;28;19909;-49
2023/03/14 01:34:01;;;;;;;;;;;;;;;;;;5053097;28;19963;-46
2023/03/14 01:36:27;;;;;;;;;;;;;;;;;;5052273;28;19913;-47
2023/03/14 01:38:53;;;;;;;;;;;;;;;;;;5041337;28;19913;-47
2023/03/14 01:41:19;;;;;;;;;;;;;;;;;;5040747;28;19924;-46
2023/03/14 01:43:45;;;;;;;;;;;;;;;;;;5039503;28;20325;-47
2023/03/14 01:46:11;;;;;;;;;;;;;;;;;;5051444;28;20401;-48
2023/03/14 01:48:36;;;;;;;;;;;;;;;;;;5069452;28;19962;-46
2023/03/14 01:51:02;;;;;;;;;;;;;;;;;;5064606;28;19913;-47
2023/03/14 01:53:28;;;;;;;;;;;;;;;;;;5072502;28;19915;-48
2023/03/14 01:55:56;;;;;;;;;;;;;;;;;;5069612;28;20010;-47
2023/03/14 01:58:22;;;;;;;;;;;;;;;;;;5071128;28;19919;-46
2023/03/14 02:00:48;;;;;;;;;;;;;;;;;;5065921;28;19904;-48
2023/03/14 02:03:14;;;;;;;;;;;;;;;;;;5065029;28;20390;-46
2023/03/14 02:05:40;;;;;;;;;;;;;;;;;;5068650;28;19913;-48
2023/03/14 02:08:06;;;;;;;;;;;;;;;;;;5062994;28;19908;-48
2023/03/14 02:10:31;;;;;;;;;;;;;;;;;;5064944;28;19914;-46
2023/03/14 02:12:57;;;;;;;;;;;;;;;;;;5069903;28;19912;-48
2023/03/14 02:15:23;;;;;;;;;;;;;;;;;;5068928;28;19908;-50
2023/03/14 02:17:49;;;;;;;;;;;;;;;;;;5065490;28;20023;-47
2023/03/14 02:20:15;;;;;;;;;;;;;;;;;;5064690;28;20408;-46
2023/03/14 02:22:41;;;;;;;;;;;;;;;;;;5070744;28;19904;-48
2023/03/14 02:25:07;;;;;;;;;;;;;;;;;;5067219;28;19957;-46
2023/03/14 02:27:33;;;;;;;;;;;;;;;;;;5061291;28;19971;-46
2023/03/14 02:29:58;;;;;;;;;;;;;;;;;;5067643;28;19908;-46
2023/03/14 02:32:24;;;;;;;;;;;;;;;;;;5067065;28;20410;-46
2023/03/14 02:34:50;;;;;;;;;;;;;;;;;;5061704;28;19916;-46
2023/03/14 02:37:16;;;;;;;;;;;;;;;;;;5067839;28;19912;-46
2023/03/14 02:39:42;;;;;;;;;;;;;;;;;;5064130;28;20011;-46
2023/03/14 02:42:08;;;;;;;;;;;;;;;;;;5068645;28;20359;-46
2023/03/14 02:44:35;;;;;;;;;;;;;;;;;;5065931;28;19983;-46
2023/03/14 02:47:01;;;;;;;;;;;;;;;;;;5068456;28;19917;-46
2023/03/14 02:49:27;;;;;;;;;;;;;;;;;;5066238;28;19908;-49
2023/03/14 02:51:53;;;;;;;;;;;;;;;;;;5062446;28;19935;-46
2023/03/14 02:54:18;;;;;;;;;;;;;;;;;;5067675;28;20382;-48
2023/03/14 02:56:44;;;;;;;;;;;;;;;;;;5063750;28;19912;-46
2023/03/14 02:59:10;;;;;;;;;;;;;;;;;;5064100;28;19943;-48
2023/03/14 03:01:36;;;;;;;;;;;;;;;;;;5064479;28;19908;-47
2023/03/14 03:04:02;;;;;;;;;;;;;;;;;;5070269;28;19916;-46
2023/03/14 03:06:28;;;;;;;;;;;;;;;;;;5065566;28;19912;-47
2023/03/14 03:08:54;;;;;;;;;;;;;;;;;;5064272;28;19999;-46
2023/03/14 03:11:20;;;;;;;;;;;;;;;;;;5066180;28;19950;-46
2023/03/14 03:13:45;;;;;;;;;;;;;;;;;;5063541;28;20701;-46
2023/03/14 03:16:13;;;;;;;;;;;;;;;;;;5067723;28;19920;-47
2023/03/14 03:18:39;;;;;;;;;;;;;;;;;;5066438;28;19989;-46
2023/03/14 03:21:05;;;;;;;;;;;;;;;;;;5066987;28;19908;-46
2023/03/14 03:23:31;;;;;;;;;;;;;;;;;;5066232;28;20007;-46
2023/03/14 03:25:57;;;;;;;;;;;;;;;;;;5069444;28;19904;-47
2023/03/14 03:28:23;;;;;;;;;;;;;;;;;;5064823;28;19909;-46
2023/03/14 03:30:49;;;;;;;;;;;;;;;;;;5064991;28;20528;-47
2023/03/14 03:33:15;;;;;;;;;;;;;;;;;;5068084;28;20002;-46
2023/03/14 03:35:41;;;;;;;;;;;;;;;;;;5067726;28;19908;-46
2023/03/14 03:38:06;;;;;;;;;;;;;;;;;;5046915;28;19957;-47
2023/03/14 03:40:32;;;;;;;;;;;;;;;;;;5067384;28;20377;-46
2023/03/14 03:42:58;;;;;;;;;;;;;;;;;;5066762;28;19952;-49
2023/03/14 03:45:24;;;;;;;;;;;;;;;;;;5062133;28;19909;-47
2023/03/14 03:47:50;;;;;;;;;;;;;;;;;;5066650;28;20293;-48
2023/03/14 03:50:16;;;;;;;;;;;;;;;;;;5063515;28;20003;-46
2023/03/14 03:52:42;;;;;;;;;;;;;;;;;;5067733;28;20391;-48
2023/03/14 03:55:07;;;;;;;;;;;;;;;;;;5067221;28;19913;-47
2023/03/14 03:57:33;;;;;;;;;;;;;;;;;;5048939;28;20378;-47
2023/03/14 03:59:59;;;;;;;;;;;;;;;;;;5064709;28;20006;-46
2023/03/14 04:02:25;;;;;;;;;;;;;;;;;;5067230;28;19963;-46
2023/03/14 04:04:51;;;;;;;;;;;;;;;;;;5070316;28;19924;-46
2023/03/14 04:07:17;;;;;;;;;;;;;;;;;;5070410;28;19908;-46
2023/03/14 04:09:43;;;;;;;;;;;;;;;;;;5070961;28;19913;-46
2023/03/14 04:12:10;;;;;;;;;;;;;;;;;;5068980;28;19912;-46
2023/03/14 04:14:36;;;;;;;;;;;;;;;;;;5071357;28;19955;-46
2023/03/14 04:17:02;;;;;;;;;;;;;;;;;;5069783;28;19947;-46
2023/03/14 04:19:28;;;;;;;;;;;;;;;;;;5063642;28;19926;-48
2023/03/14 04:21:54;;;;;;;;;;;;;;;;;;5071430;28;19915;-48
2023/03/14 04:24:20;;;;;;;;;;;;;;;;;;5069372;28;19908;-46
2023/03/14 04:26:46;;;;;;;;;;;;;;;;;;5068108;28;19916;-49
2023/03/14 04:29:12;;;;;;;;;;;;;;;;;;5071840;28;19908;-47
2023/03/14 04:31:37;;;;;;;;;;;;;;;;;;5068839;28;19916;-47
2023/03/14 04:34:03;;;;;;;;;;;;;;;;;;5071107;28;19909;-47
2023/03/14 04:36:29;;;;;;;;;;;;;;;;;;5063530;28;19922;-51
2023/03/14 04:38:55;;;;;;;;;;;;;;;;;;5070986;28;19913;-46
2023/03/14 04:41:21;;;;;;;;;;;;;;;;;;5071709;28;19999;-46
2023/03/14 04:43:47;;;;;;;;;;;;;;;;;;5068856;28;19911;-46
2023/03/14 04:46:13;;;;;;;;;;;;;;;;;;5069917;28;20278;-49
2023/03/14 04:48:39;;;;;;;;;;;;;;;;;;5068720;28;20006;-47
2023/03/14 04:51:05;;;;;;;;;;;;;;;;;;5068401;28;20381;-46
2023/03/14 04:53:31;;;;;;;;;;;;;;;;;;5062871;28;19908;-47
2023/03/14 04:55:57;;;;;;;;;;;;;;;;;;5070062;28;19913;-49
2023/03/14 04:58:22;;;;;;;;;;;;;;;;;;5072046;28;19923;-46
2023/03/14 05:00:48;;;;;;;;;;;;;;;;;;5067354;28;20555;-46
2023/03/14 05:03:14;;;;;;;;;;;;;;;;;;5071105;28;19915;-47
2023/03/14 05:05:40;;;;;;;;;;;;;;;;;;5068788;28;20263;-47
2023/03/14 05:08:06;;;;;;;;;;;;;;;;;;5068900;28;19916;-47
2023/03/14 05:10:32;;;;;;;;;;;;;;;;;;5063069;28;19997;-47
2023/03/14 05:12:58;;;;;;;;;;;;;;;;;;5069708;28;19912;-47
2023/03/14 05:15:23;;;;;;;;;;;;;;;;;;5066781;28;20007;-47
2023/03/14 05:17:49;;;;;;;;;;;;;;;;;;5067676;28;20484;-48
2023/03/14 05:20:16;;;;;;;;;;;;;;;;;;5066306;28;19912;-46
2023/03/14 05:22:42;;;;;;;;;;;;;;;;;;5064837;28;19913;-48
2023/03/14 05:25:08;;;;;;;;;;;;;;;;;;5069289;28;20501;-49
2023/03/14 05:27:33;;;;;;;;;;;;;;;;;;5062080;28;19912;-50
2023/03/14 05:29:59;;;;;;;;;;;;;;;;;;5049385;28;19944;-48
2023/03/14 05:32:25;;;;;;;;;;;;;;;;;;5066536;28;19908;-46
2023/03/14 05:34:51;;;;;;;;;;;;;;;;;;5068920;28;19916;-46
2023/03/14 05:37:17;;;;;;;;;;;;;;;;;;5071797;28;19912;-47
2023/03/14 05:39:43;;;;;;;;;;;;;;;;;;5067607;28;20393;-47
2023/03/14 05:42:09;;;;;;;;;;;;;;;;;;5077120;28;19909;-47
2023/03/14 05:44:34;;;;;;;;;;;;;;;;;;5071525;28;19920;-48
2023/03/14 05:47:00;;;;;;;;;;;;;;;;;;5063428;28;20291;-48
2023/03/14 05:49:26;;;;;;;;;;;;;;;;;;5070089;28;19953;-49
2023/03/14 05:51:52;;;;;;;;;;;;;;;;;;5060251;28;19913;-46
2023/03/14 05:54:18;;;;;;;;;;;;;;;;;;5059933;28;19909;-50
2023/03/14 05:56:44;;;;;;;;;;;;;;;;;;5064427;28;20059;-53
2023/03/14 05:59:10;;;;;;;;;;;;;;;;;;5057669;28;20287;-48
2023/03/14 06:01:36;;;;;;;;;;;;;;;;;;5066721;28;19920;-52
2023/03/14 06:04:02;;;;;;;;;;;;;;;;;;5057173;28;19915;-52
2023/03/14 06:06:27;;;;;;;;;;;;;;;;;;5070114;28;20355;-51
2023/03/14 06:08:53;;;;;;;;;;;;;;;;;;5065231;28;19965;-50
2023/03/14 06:11:19;;;;;;;;;;;;;;;;;;5065177;28;19908;-49
2023/03/14 06:13:46;;;;;;;;;;;;;;;;;;5067047;28;19908;-48
2023/03/14 06:16:12;;;;;;;;;;;;;;;;;;5075516;28;20385;-46
2023/03/14 06:18:37;;;;;;;;;;;;;;;;;;5068511;28;19908;-49
2023/03/14 06:21:03;;;;;;;;;;;;;;;;;;5063011;28;19908;-48
2023/03/14 06:23:31;;;;;;;;;;;;;;;;;;5069272;28;20313;-50
2023/03/14 06:25:57;;;;;;;;;;;;;;;;;;5072716;28;20450;-48
2023/03/14 06:28:23;;;;;;;;;;;;;;;;;;5064930;28;19995;-46
2023/03/14 06:30:49;;;;;;;;;;;;;;;;;;5062192;28;19905;-49
2023/03/14 06:33:15;;;;;;;;;;;;;;;;;;5072773;28;20381;-48
2023/03/14 06:35:40;;;;;;;;;;;;;;;;;;5068568;28;19908;-48
2023/03/14 06:38:06;;;;;;;;;;;;;;;;;;5061252;28;20325;-48
2023/03/14 06:40:32;;;;;;;;;;;;;;;;;;5068165;28;19916;-48
2023/03/14 06:42:58;;;;;;;;;;;;;;;;;;5060619;28;19908;-49
2023/03/14 06:45:24;;;;;;;;;;;;;;;;;;5071427;28;20014;-47
2023/03/14 06:47:50;;;;;;;;;;;;;;;;;;5067105;28;20149;-51
2023/03/14 06:50:16;;;;;;;;;;;;;;;;;;5059677;28;19909;-52
2023/03/14 06:52:47;;;;;;;;;;;;;;;;;;5062935;28;19909;-53
2023/03/14 06:55:13;;;;;;;;;;;;;;;;;;5062376;28;19955;-51
2023/03/14 06:57:39;;;;;;;;;;;;;;;;;;5060513;28;21018;-48
2023/03/14 07:00:05;;;;;;;;;;;;;;;;;;5055254;28;19920;-48
2023/03/14 07:02:31;;;;;;;;;;;;;;;;;;5059030;28;19931;-50
2023/03/14 07:04:57;;;;;;;;;;;;;;;;;;5059350;28;19952;-50
2023/03/14 07:07:23;;;;;;;;;;;;;;;;;;5058564;28;20355;-50
2023/03/14 07:09:48;;;;;;;;;;;;;;;;;;5055997;28;19909;-47
2023/03/14 07:12:14;;;;;;;;;;;;;;;;;;5054691;28;19959;-51
2023/03/14 07:14:40;;;;;;;;;;;;;;;;;;5056903;28;19913;-47
2023/03/14 07:17:06;;;;;;;;;;;;;;;;;;5057483;28;20320;-50
2023/03/14 07:19:32;;;;;;;;;;;;;;;;;;5057675;28;20044;-50
2023/03/14 07:21:58;;;;;;;;;;;;;;;;;;5061674;28;19912;-51
2023/03/14 07:24:24;;;;;;;;;;;;;;;;;;5057818;28;19947;-48
2023/03/14 07:26:50;;;;;;;;;;;;;;;;;;5056056;28;19919;-49
2023/03/14 07:29:15;;;;;;;;;;;;;;;;;;5065353;28;20274;-50
2023/03/14 07:31:41;;;;;;;;;;;;;;;;;;5058346;28;19995;-47
2023/03/14 07:34:07;;;;;;;;;;;;;;;;;;5056360;28;19916;-47
2023/03/14 07:36:33;;;;;;;;;;;;;;;;;;5059719;28;19990;-48
2023/03/14 07:38:59;;;;;;;;;;;;;;;;;;5062412;28;19921;-48
2023/03/14 07:41:25;;;;;;;;;;;;;;;;;;5067521;28;19995;-46
2023/03/14 07:43:51;;;;;;;;;;;;;;;;;;5066494;28;19919;-46
2023/03/14 07:46:17;;;;;;;;;;;;;;;;;;5063102;28;19908;-46
2023/03/14 07:48:43;;;;;;;;;;;;;;;;;;5068680;28;20898;-48
2023/03/14 07:51:09;;;;;;;;;;;;;;;;;;5061470;28;19912;-46
2023/03/14 07:53:35;;;;;;;;;;;;;;;;;;5062930;28;20282;-46
2023/03/14 07:56:00;;;;;;;;;;;;;;;;;;5066299;28;20255;-46
2023/03/14 07:58:26;;;;;;;;;;;;;;;;;;5063172;28;19927;-47
2023/03/14 08:00:52;;;;;;;;;;;;;;;;;;5059781;28;19912;-50
2023/03/14 08:03:18;;;;;;;;;;;;;;;;;;5042543;28;19909;-46
2023/03/14 08:05:44;;;;;;;;;;;;;;;;;;5061362;28;19924;-46
2023/03/14 08:08:10;;;;;;;;;;;;;;;;;;5056235;28;19909;-47
2023/03/14 08:10:36;;;;;;;;;;;;;;;;;;5055143;28;19912;-48
2023/03/14 08:13:02;;;;;;;;;;;;;;;;;;5059130;28;19912;-48
2023/03/14 08:15:28;;;;;;;;;;;;;;;;;;5057722;28;20335;-47
2023/03/14 08:17:54;;;;;;;;;;;;;;;;;;5055652;28;19919;-46
2023/03/14 08:20:20;;;;;;;;;;;;;;;;;;5059766;28;20003;-46
2023/03/14 08:22:45;;;;;;;;;;;;;;;;;;5064318;28;19909;-46
2023/03/14 08:25:11;;;;;;;;;;;;;;;;;;5059630;28;20320;-48
2023/03/14 08:27:38;;;;;;;;;;;;;;;;;;5054737;28;19916;-48
2023/03/14 08:30:04;;;;;;;;;;;;;;;;;;5060742;28;19962;-47
2023/03/14 08:32:30;;;;;;;;;;;;;;;;;;5061370;28;19912;-46
2023/03/14 08:34:56;;;;;;;;;;;;;;;;;;5060741;28;19916;-46
2023/03/14 08:37:24;;;;;;;;;;;;;;;;;;5057192;28;20313;-46
2023/03/14 08:39:50;;;;;;;;;;;;;;;;;;5056559;28;19923;-46
2023/03/14 08:42:15;;;;;;;;;;;;;;;;;;5055663;28;19991;-46
2023/03/14 08:44:41;;;;;;;;;;;;;;;;;;5066892;28;19908;-48
2023/03/14 08:47:07;;;;;;;;;;;;;;;;;;5058292;28;20595;-47
2023/03/14 08:49:33;;;;;;;;;;;;;;;;;;5067848;28;20062;-47
2023/03/14 08:51:59;;;;;;;;;;;;;;;;;;5073436;28;19912;-48
2023/03/14 08:54:25;;;;;;;;;;;;;;;;;;5071569;28;19908;-47
2023/03/14 08:56:51;;;;;;;;;;;;;;;;;;5067738;28;19996;-51
2023/03/14 08:59:17;;;;;;;;;;;;;;;;;;5067525;28;20381;-46
2023/03/14 09:01:43;;;;;;;;;;;;;;;;;;5064663;28;19917;-49
2023/03/14 09:04:09;;;;;;;;;;;;;;;;;;5066506;28;20274;-47
2023/03/14 09:06:35;;;;;;;;;;;;;;;;;;5061493;28;20016;-47
2023/03/14 09:09:01;;;;;;;;;;;;;;;;;;5069838;28;19912;-47
2023/03/14 09:11:27;;;;;;;;;;;;;;;;;;5070042;28;19952;-48
2023/03/14 09:13:53;;;;;;;;;;;;;;;;;;5069475;28;19909;-49
2023/03/14 09:16:19;;;;;;;;;;;;;;;;;;5072479;28;19996;-46
2023/03/14 09:18:45;;;;;;;;;;;;;;;;;;5071663;28;19913;-48
2023/03/14 09:21:10;;;;;;;;;;;;;;;;;;5057072;28;20421;-48
2023/03/14 09:23:36;;;;;;;;;;;;;;;;;;5066195;28;20007;-46
2023/03/14 09:26:02;;;;;;;;;;;;;;;;;;5072799;28;20370;-48
2023/03/14 09:28:28;;;;;;;;;;;;;;;;;;5071033;28;19916;-49
2023/03/14 09:30:54;;;;;;;;;;;;;;;;;;5069872;28;19908;-47
2023/03/14 09:33:20;;;;;;;;;;;;;;;;;;5062317;28;20007;-46
2023/03/14 09:35:46;;;;;;;;;;;;;;;;;;5064430;28;19909;-51
2023/03/14 09:38:12;;;;;;;;;;;;;;;;;;5061956;28;20015;-47
2023/03/14 09:40:37;;;;;;;;;;;;;;;;;;5062912;28;20003;-48
2023/03/14 09:43:04;;;;;;;;;;;;;;;;;;5069799;28;19908;-46
2023/03/14 09:45:29;;;;;;;;;;;;;;;;;;5069025;28;19915;-48
2023/03/14 09:47:55;;;;;;;;;;;;;;;;;;5071762;28;19917;-49
2023/03/14 09:50:22;;;;;;;;;;;;;;;;;;5064575;28;20027;-46
2023/03/14 09:52:48;;;;;;;;;;;;;;;;;;5071735;28;19987;-46
2023/03/14 09:55:14;;;;;;;;;;;;;;;;;;5065006;28;19916;-46
2023/03/14 09:57:40;;;;;;;;;;;;;;;;;;5067204;28;19923;-48
2023/03/14 10:00:13;;;;;;;;;;;;;;;;;;5061482;28;20007;-50
2023/03/14 10:02:38;;;;;;;;;;;;;;;;;;5061637;28;19955;-49
2023/03/14 10:05:04;;;;;;;;;;;;;;;;;;5067167;28;19936;-47
2023/03/14 10:07:30;;;;;;;;;;;;;;;;;;5061472;28;19909;-49
2023/03/14 10:09:56;;;;;;;;;;;;;;;;;;5059937;28;19908;-47
2023/03/14 10:12:22;;;;;;;;;;;;;;;;;;5066724;28;19974;-48
2023/03/14 10:14:48;;;;;;;;;;;;;;;;;;5069121;28;19939;-47
2023/03/14 10:17:14;;;;;;;;;;;;;;;;;;5066038;28;19917;-48
2023/03/14 10:19:40;;;;;;;;;;;;;;;;;;5059625;28;19908;-48
2023/03/14 10:22:06;;;;;;;;;;;;;;;;;;5059761;28;19909;-46
2023/03/14 10:24:32;;;;;;;;;;;;;;;;;;5061427;28;20289;-49
2023/03/14 10:26:58;;;;;;;;;;;;;;;;;;5060251;28;19932;-47
2023/03/14 10:29:24;;;;;;;;;;;;;;;;;;5071740;28;20351;-46
2023/03/14 10:31:49;;;;;;;;;;;;;;;;;;5057794;28;19919;-46
2023/03/14 10:34:15;;;;;;;;;;;;;;;;;;5066791;28;19916;-47
2023/03/14 10:36:41;;;;;;;;;;;;;;;;;;5057030;28;20290;-49
2023/03/14 10:39:07;;;;;;;;;;;;;;;;;;5061194;28;20015;-46
2023/03/14 10:41:33;;;;;;;;;;;;;;;;;;5071544;28;19916;-49
2023/03/14 10:43:59;;;;;;;;;;;;;;;;;;5064718;28;19909;-47
2023/03/14 10:46:25;;;;;;;;;;;;;;;;;;5062717;28;20275;-47
2023/03/14 10:48:51;;;;;;;;;;;;;;;;;;5072458;28;20056;-46
2023/03/14 10:51:16;;;;;;;;;;;;;;;;;;5065562;28;19909;-46
2023/03/14 10:53:42;;;;;;;;;;;;;;;;;;5070538;28;19915;-48
2023/03/14 10:56:08;;;;;;;;;;;;;;;;;;5063698;28;19968;-46
2023/03/14 10:58:34;;;;;;;;;;;;;;;;;;5062339;28;19993;-46
2023/03/14 11:01:00;;;;;;;;;;;;;;;;;;5067943;28;20367;-49
2023/03/14 11:03:26;;;;;;;;;;;;;;;;;;5071208;28;19908;-48
2023/03/14 11:05:52;;;;;;;;;;;;;;;;;;5060461;28;20312;-46
2023/03/14 11:08:18;;;;;;;;;;;;;;;;;;5067702;28;19912;-47
2023/03/14 11:10:44;;;;;;;;;;;;;;;;;;5060556;28;20341;-46
2023/03/14 11:13:10;;;;;;;;;;;;;;;;;;5070062;28;19952;-46
2023/03/14 11:15:35;;;;;;;;;;;;;;;;;;5069651;28;20278;-46
2023/03/14 11:18:01;;;;;;;;;;;;;;;;;;5070273;28;19924;-46
2023/03/14 11:20:27;;;;;;;;;;;;;;;;;;5067930;28;19908;-50
2023/03/14 11:22:53;;;;;;;;;;;;;;;;;;5070261;28;19936;-47
2023/03/14 11:25:19;;;;;;;;;;;;;;;;;;5066967;28;20436;-46
2023/03/14 11:27:45;;;;;;;;;;;;;;;;;;5064013;28;19908;-46
2023/03/14 11:30:11;;;;;;;;;;;;;;;;;;5059932;28;19999;-48
2023/03/14 11:32:37;;;;;;;;;;;;;;;;;;5064653;28;19908;-47
2023/03/14 11:35:03;;;;;;;;;;;;;;;;;;5058081;28;20003;-46
2023/03/14 11:37:28;;;;;;;;;;;;;;;;;;5054260;28;19924;-48
2023/03/14 11:39:54;;;;;;;;;;;;;;;;;;5064391;28;20003;-46
2023/03/14 11:42:20;;;;;;;;;;;;;;;;;;5070541;28;19908;-50
2023/03/14 11:44:46;;;;;;;;;;;;;;;;;;5069778;28;20216;-46
2023/03/14 11:47:14;;;;;;;;;;;;;;;;;;5054038;28;19928;-46
2023/03/14 11:49:40;;;;;;;;;;;;;;;;;;5065255;28;19908;-45
2023/03/14 11:52:05;;;;;;;;;;;;;;;;;;5067105;28;19905;-45
2023/03/14 11:54:31;;;;;;;;;;;;;;;;;;5054807;28;20013;-48
2023/03/14 11:56:57;;;;;;;;;;;;;;;;;;5059078;28;19970;-46
2023/03/14 11:59:23;;;;;;;;;;;;;;;;;;5066452;28;19904;-49
2023/03/14 12:01:49;;;;;;;;;;;;;;;;;;5068917;28;19904;-46
2023/03/14 12:04:15;;;;;;;;;;;;;;;;;;5065111;28;19913;-47
2023/03/14 12:06:41;;;;;;;;;;;;;;;;;;5069378;28;19904;-46
2023/03/14 12:09:13;;;;;;;;;;;;;;;;;;5065214;28;19916;-45
2023/03/14 12:11:38;;;;;;;;;;;;;;;;;;5061383;28;20266;-47
2023/03/14 12:14:04;;;;;;;;;;;;;;;;;;5070080;28;20047;-49
2023/03/14 12:16:30;;;;;;;;;;;;;;;;;;5069016;28;19913;-45
2023/03/14 12:18:56;;;;;;;;;;;;;;;;;;5066836;28;19908;-45
2023/03/14 12:21:22;;;;;;;;;;;;;;;;;;5060627;28;19912;-44
2023/03/14 12:23:48;;;;;;;;;;;;;;;;;;5065472;28;20500;-45
2023/03/14 12:26:14;;;;;;;;;;;;;;;;;;5052351;28;19995;-47
2023/03/14 12:28:40;;;;;;;;;;;;;;;;;;5067337;28;19905;-45
2023/03/14 12:31:06;;;;;;;;;;;;;;;;;;5062290;28;19912;-45
2023/03/14 12:33:31;;;;;;;;;;;;;;;;;;5069714;28;20023;-44
2023/03/14 12:35:57;;;;;;;;;;;;;;;;;;5073327;28;20011;-45
2023/03/14 12:38:23;;;;;;;;;;;;;;;;;;5069056;28;19908;-44
2023/03/14 12:40:49;;;;;;;;;;;;;;;;;;5069068;28;19905;-45
2023/03/14 12:43:15;;;;;;;;;;;;;;;;;;5073761;28;19912;-46
2023/03/14 12:45:41;;;;;;;;;;;;;;;;;;5069476;28;20274;-46
2023/03/14 12:48:07;;;;;;;;;;;;;;;;;;5072347;28;19923;-45
2023/03/14 12:50:33;;;;;;;;;;;;;;;;;;5072111;28;19962;-46
2023/03/14 12:52:59;;;;;;;;;;;;;;;;;;5073582;28;19915;-48
2023/03/14 12:55:24;;;;;;;;;;;;;;;;;;5063560;28;19959;-45
2023/03/14 12:57:50;;;;;;;;;;;;;;;;;;5068263;28;20015;-48
2023/03/14 13:00:16;;;;;;;;;;;;;;;;;;5071580;28;19908;-48
2023/03/14 13:02:43;;;;;;;;;;;;;;;;;;5066717;28;20371;-45
2023/03/14 13:05:10;;;;;;;;;;;;;;;;;;5064346;28;19933;-45
2023/03/14 13:07:35;;;;;;;;;;;;;;;;;;5065661;28;20005;-48
2023/03/14 13:10:01;;;;;;;;;;;;;;;;;;5069089;28;19916;-47
2023/03/14 13:12:29;;;;;;;;;;;;;;;;;;5071889;28;19921;-48
2023/03/14 13:14:55;;;;;;;;;;;;;;;;;;5071093;28;19908;-46
2023/03/14 13:17:21;;;;;;;;;;;;;;;;;;5073250;28;20116;-45
2023/03/14 13:19:47;;;;;;;;;;;;;;;;;;5061820;28;19916;-45
2023/03/14 13:22:13;;;;;;;;;;;;;;;;;;5068865;28;19912;-45
2023/03/14 13:24:39;;;;;;;;;;;;;;;;;;5063234;28;19908;-46
2023/03/14 13:27:05;;;;;;;;;;;;;;;;;;5070328;28;20359;-48
2023/03/14 13:29:33;;;;;;;;;;;;;;;;;;5053407;28;19986;-49
2023/03/14 13:31:59;;;;;;;;;;;;;;;;;;5070818;28;20270;-47
2023/03/14 13:34:25;;;;;;;;;;;;;;;;;;5070949;28;19917;-44
2023/03/14 13:36:51;;;;;;;;;;;;;;;;;;5069768;28;19963;-44
2023/03/14 13:39:17;;;;;;;;;;;;;;;;;;5064662;28;19909;-46
2023/03/14 13:41:43;;;;;;;;;;;;;;;;;;5064025;28;19987;-46
2023/03/14 13:44:09;;;;;;;;;;;;;;;;;;5068561;28;19916;-47
2023/03/14 13:46:35;;;;;;;;;;;;;;;;;;5065249;28;19908;-46
2023/03/14 13:49:00;;;;;;;;;;;;;;;;;;5070129;28;19908;-46
2023/03/14 13:51:31;;;;;;;;;;;;;;;;;;5063356;28;19952;-45
2023/03/14 13:53:57;;;;;;;;;;;;;;;;;;5070266;28;19915;-46
2023/03/14 13:56:23;;;;;;;;;;;;;;;;;;5058392;28;19917;-45
2023/03/14 13:58:49;;;;;;;;;;;;;;;;;;5064330;28;20063;-44
2023/03/14 14:01:15;;;;;;;;;;;;;;;;;;5067302;28;19908;-45
2023/03/14 14:03:41;;;;;;;;;;;;;;;;;;5058550;28;20283;-44
2023/03/14 14:06:06;;;;;;;;;;;;;;;;;;5071130;28;19965;-44
2023/03/14 14:08:32;;;;;;;;;;;;;;;;;;5071713;28;19953;-44
2023/03/14 14:10:59;;;;;;;;;;;;;;;;;;5064956;28;19909;-45
2023/03/14 14:13:25;;;;;;;;;;;;;;;;;;5071989;28;19995;-44
2023/03/14 14:15:51;;;;;;;;;;;;;;;;;;5066465;28;20311;-45
2023/03/14 14:18:16;;;;;;;;;;;;;;;;;;5071798;28;19962;-45
2023/03/14 14:20:43;;;;;;;;;;;;;;;;;;5064746;28;19908;-44
2023/03/14 14:23:09;;;;;;;;;;;;;;;;;;5063223;28;19919;-44
2023/03/14 14:25:34;;;;;;;;;;;;;;;;;;5066062;28;19908;-46
2023/03/14 14:28:00;;;;;;;;;;;;;;;;;;5068471;28;20366;-48
2023/03/14 14:30:27;;;;;;;;;;;;;;;;;;5058170;28;20030;-47
2023/03/14 14:32:53;;;;;;;;;;;;;;;;;;5068062;28;20480;-45
2023/03/14 14:35:18;;;;;;;;;;;;;;;;;;5064362;28;19999;-45
2023/03/14 14:37:44;;;;;;;;;;;;;;;;;;5059029;28;19931;-45
2023/03/14 14:40:10;;;;;;;;;;;;;;;;;;5064536;28;19915;-45
2023/03/14 14:42:36;;;;;;;;;;;;;;;;;;5063702;28;20338;-45
2023/03/14 14:45:02;;;;;;;;;;;;;;;;;;5065982;28;19919;-45
2023/03/14 14:47:28;;;;;;;;;;;;;;;;;;5070851;28;19923;-46
2023/03/14 14:49:54;;;;;;;;;;;;;;;;;;5064361;28;19948;-44
2023/03/14 14:52:20;;;;;;;;;;;;;;;;;;5060636;28;19909;-45
2023/03/14 14:54:46;;;;;;;;;;;;;;;;;;5063422;28;19908;-45
2023/03/14 14:57:12;;;;;;;;;;;;;;;;;;5070952;28;19927;-47
2023/03/14 14:59:38;;;;;;;;;;;;;;;;;;5060196;28;19912;-45
2023/03/14 15:02:04;;;;;;;;;;;;;;;;;;5067391;28;19915;-46
2023/03/14 15:04:30;;;;;;;;;;;;;;;;;;5063232;28;19923;-47
2023/03/14 15:06:56;;;;;;;;;;;;;;;;;;5058906;28;19975;-46
2023/03/14 15:09:22;;;;;;;;;;;;;;;;;;5066914;28;19923;-47
2023/03/14 15:11:48;;;;;;;;;;;;;;;;;;5069362;28;19926;-45
2023/03/14 15:14:14;;;;;;;;;;;;;;;;;;5062974;28;19908;-45
2023/03/14 15:16:40;;;;;;;;;;;;;;;;;;5071906;28;20272;-47
2023/03/14 15:19:06;;;;;;;;;;;;;;;;;;5070786;28;20014;-47
2023/03/14 15:21:32;;;;;;;;;;;;;;;;;;5060493;28;20047;-46
2023/03/14 15:23:58;;;;;;;;;;;;;;;;;;5063459;28;19941;-49
2023/03/14 15:26:24;;;;;;;;;;;;;;;;;;5069763;28;19916;-46
2023/03/14 15:28:50;;;;;;;;;;;;;;;;;;5065735;28;19915;-45
2023/03/14 15:31:17;;;;;;;;;;;;;;;;;;5066251;28;19908;-45
2023/03/14 15:33:43;;;;;;;;;;;;;;;;;;5074175;28;20006;-45
2023/03/14 15:36:09;;;;;;;;;;;;;;;;;;5064266;28;19912;-46
2023/03/14 15:38:35;;;;;;;;;;;;;;;;;;5068434;28;19916;-46
2023/03/14 15:41:01;;;;;;;;;;;;;;;;;;5068706;28;20355;-45
2023/03/14 15:43:27;;;;;;;;;;;;;;;;;;5073155;28;20351;-47
2023/03/14 15:45:53;;;;;;;;;;;;;;;;;;5058434;28;19913;-45
2023/03/14 15:48:19;;;;;;;;;;;;;;;;;;5072816;28;19996;-49
2023/03/14 15:50:45;;;;;;;;;;;;;;;;;;5061078;28;19908;-51
2023/03/14 15:53:11;;;;;;;;;;;;;;;;;;5070690;28;19915;-47
2023/03/14 15:55:37;;;;;;;;;;;;;;;;;;5057920;28;19909;-50
2023/03/14 15:58:03;;;;;;;;;;;;;;;;;;5071403;28;19973;-47
2023/03/14 16:00:28;;;;;;;;;;;;;;;;;;5059741;28;20282;-46
2023/03/14 16:02:54;;;;;;;;;;;;;;;;;;5071204;28;19915;-45
2023/03/14 16:05:20;;;;;;;;;;;;;;;;;;5061731;28;19908;-45
2023/03/14 16:07:46;;;;;;;;;;;;;;;;;;5081484;28;19915;-46
2023/03/14 16:10:12;;;;;;;;;;;;;;;;;;5064240;28;20439;-54
2023/03/14 16:12:38;;;;;;;;;;;;;;;;;;5078218;28;19908;-48
2023/03/14 16:15:04;;;;;;;;;;;;;;;;;;5070956;28;19917;-48
2023/03/14 16:17:30;;;;;;;;;;;;;;;;;;5068478;28;19916;-47
2023/03/14 16:19:55;;;;;;;;;;;;;;;;;;5067220;28;19909;-49
2023/03/14 16:22:21;;;;;;;;;;;;;;;;;;5067179;28;19919;-46
2023/03/14 16:24:47;;;;;;;;;;;;;;;;;;5067778;28;19900;-46
2023/03/14 16:27:13;;;;;;;;;;;;;;;;;;5071173;28;19920;-44
2023/03/14 16:29:39;;;;;;;;;;;;;;;;;;5066708;28;20342;-46
2023/03/14 16:32:05;;;;;;;;;;;;;;;;;;5066005;28;19931;-44
2023/03/14 16:34:31;;;;;;;;;;;;;;;;;;5071215;28;20279;-43
2023/03/14 16:36:57;;;;;;;;;;;;;;;;;;5068663;28;19922;-45